sensor_id;sensor_type;location;lat;lon;timestamp;P1;durP1;ratioP1;P2;durP2;ratioP2
23015;SDS011;11674;52.428;13.584;2023-01-31T00:01:49;12.77;;;2.65;;
23015;SDS011;11674;52.428;13.584;2023-01-31T00:06:56;13.88;;;2.80;;
23015;SDS011;11674;52.428;13.584;2023-01-31T00:12:03;19.38;;;2.67;;
23015;SDS011;11674;52.428;13.584;2023-01-31T00:17:10;19.08;;;2.63;;
23015;SDS011;11674;52.428;13.584;2023-01-31T00:22:17;27.02;;;2.90;;
23015;SDS011;11674;52.428;13.584;2023-01-31T00:27:31;20.23;;;2.88;;
23015;SDS011;11674;52.428;13.584;2023-01-31T00:32:38;16.60;;;3.78;;
23015;SDS011;11674;52.428;13.584;2023-01-31T00:37:45;32.30;;;10.02;;
23015;SDS011;11674;52.428;13.584;2023-01-31T00:42:52;16.50;;;3.75;;
23015;SDS011;11674;52.428;13.584;2023-01-31T00:47:59;12.20;;;2.65;;
23015;SDS011;11674;52.428;13.584;2023-01-31T00:53:07;17.90;;;2.35;;
23015;SDS011;11674;52.428;13.584;2023-01-31T00:58:15;10.70;;;2.03;;
23015;SDS011;11674;52.428;13.584;2023-01-31T01:03:23;11.00;;;2.50;;
23015;SDS011;11674;52.428;13.584;2023-01-31T01:08:30;12.30;;;2.53;;
23015;SDS011;11674;52.428;13.584;2023-01-31T01:13:37;10.88;;;2.45;;
23015;SDS011;11674;52.428;13.584;2023-01-31T01:18:44;12.35;;;2.40;;
23015;SDS011;11674;52.428;13.584;2023-01-31T01:23:54;15.43;;;3.00;;
23015;SDS011;11674;52.428;13.584;2023-01-31T01:29:02;12.90;;;2.17;;
23015;SDS011;11674;52.428;13.584;2023-01-31T01:34:12;12.88;;;2.38;;
23015;SDS011;11674;52.428;13.584;2023-01-31T01:39:20;18.27;;;3.22;;
23015;SDS011;11674;52.428;13.584;2023-01-31T01:44:47;8.73;;;2.13;;
23015;SDS011;11674;52.428;13.584;2023-01-31T01:50:03;10.18;;;2.17;;
23015;SDS011;11674;52.428;13.584;2023-01-31T01:55:19;12.88;;;2.30;;
23015;SDS011;11674;52.428;13.584;2023-01-31T02:00:29;16.73;;;2.05;;
23015;SDS011;11674;52.428;13.584;2023-01-31T02:05:39;31.70;;;9.52;;
23015;SDS011;11674;52.428;13.584;2023-01-31T02:16:21;11.45;;;2.10;;
23015;SDS011;11674;52.428;13.584;2023-01-31T02:53:59;11.57;;;2.47;;
23015;SDS011;11674;52.428;13.584;2023-01-31T02:59:18;12.13;;;2.88;;
23015;SDS011;11674;52.428;13.584;2023-01-31T03:04:30;16.55;;;2.28;;
23015;SDS011;11674;52.428;13.584;2023-01-31T03:20:32;17.42;;;1.98;;
23015;SDS011;11674;52.428;13.584;2023-01-31T03:25:43;10.90;;;2.35;;
23015;SDS011;11674;52.428;13.584;2023-01-31T03:31:07;8.20;;;1.80;;
23015;SDS011;11674;52.428;13.584;2023-01-31T03:36:24;9.63;;;1.85;;
23015;SDS011;11674;52.428;13.584;2023-01-31T03:41:53;12.68;;;2.10;;
23015;SDS011;11674;52.428;13.584;2023-01-31T03:47:05;10.27;;;2.05;;
23015;SDS011;11674;52.428;13.584;2023-01-31T03:52:21;8.70;;;1.63;;
23015;SDS011;11674;52.428;13.584;2023-01-31T03:57:35;7.28;;;1.58;;
23015;SDS011;11674;52.428;13.584;2023-01-31T04:02:45;9.60;;;2.03;;
23015;SDS011;11674;52.428;13.584;2023-01-31T04:07:56;10.90;;;2.15;;
23015;SDS011;11674;52.428;13.584;2023-01-31T04:13:06;12.48;;;2.33;;
23015;SDS011;11674;52.428;13.584;2023-01-31T04:18:13;9.35;;;1.50;;
23015;SDS011;11674;52.428;13.584;2023-01-31T04:23:20;11.77;;;2.50;;
23015;SDS011;11674;52.428;13.584;2023-01-31T04:28:27;13.88;;;2.08;;
23015;SDS011;11674;52.428;13.584;2023-01-31T04:33:34;14.32;;;3.00;;
23015;SDS011;11674;52.428;13.584;2023-01-31T04:38:41;12.15;;;2.20;;
23015;SDS011;11674;52.428;13.584;2023-01-31T04:43:48;10.27;;;1.83;;
23015;SDS011;11674;52.428;13.584;2023-01-31T04:48:55;12.82;;;1.95;;
23015;SDS011;11674;52.428;13.584;2023-01-31T04:54:02;10.35;;;1.77;;
23015;SDS011;11674;52.428;13.584;2023-01-31T04:59:09;11.43;;;2.25;;
23015;SDS011;11674;52.428;13.584;2023-01-31T05:04:16;10.55;;;2.40;;
23015;SDS011;11674;52.428;13.584;2023-01-31T05:09:23;15.98;;;2.35;;
23015;SDS011;11674;52.428;13.584;2023-01-31T05:14:30;14.43;;;2.28;;
23015;SDS011;11674;52.428;13.584;2023-01-31T05:19:37;11.77;;;1.92;;
23015;SDS011;11674;52.428;13.584;2023-01-31T05:24:44;13.02;;;2.65;;
23015;SDS011;11674;52.428;13.584;2023-01-31T05:29:51;15.27;;;2.35;;
23015;SDS011;11674;52.428;13.584;2023-01-31T05:34:58;10.27;;;2.10;;
23015;SDS011;11674;52.428;13.584;2023-01-31T05:40:05;12.02;;;2.10;;
23015;SDS011;11674;52.428;13.584;2023-01-31T05:45:12;16.48;;;2.17;;
23015;SDS011;11674;52.428;13.584;2023-01-31T05:50:19;12.02;;;2.25;;
23015;SDS011;11674;52.428;13.584;2023-01-31T05:55:27;13.68;;;2.33;;
23015;SDS011;11674;52.428;13.584;2023-01-31T06:00:35;10.85;;;1.80;;
23015;SDS011;11674;52.428;13.584;2023-01-31T06:05:42;14.68;;;2.20;;
23015;SDS011;11674;52.428;13.584;2023-01-31T06:10:49;12.18;;;2.05;;
23015;SDS011;11674;52.428;13.584;2023-01-31T06:15:56;17.42;;;2.00;;
23015;SDS011;11674;52.428;13.584;2023-01-31T06:21:03;10.70;;;2.15;;
23015;SDS011;11674;52.428;13.584;2023-01-31T06:26:10;13.23;;;2.50;;
23015;SDS011;11674;52.428;13.584;2023-01-31T06:31:17;15.05;;;2.60;;
23015;SDS011;11674;52.428;13.584;2023-01-31T06:36:24;12.98;;;2.50;;
23015;SDS011;11674;52.428;13.584;2023-01-31T06:41:31;11.70;;;2.53;;
23015;SDS011;11674;52.428;13.584;2023-01-31T06:46:38;14.02;;;2.60;;
23015;SDS011;11674;52.428;13.584;2023-01-31T06:51:45;16.17;;;2.40;;
23015;SDS011;11674;52.428;13.584;2023-01-31T06:56:52;20.20;;;2.88;;
23015;SDS011;11674;52.428;13.584;2023-01-31T07:01:59;10.52;;;2.63;;
23015;SDS011;11674;52.428;13.584;2023-01-31T07:07:06;15.80;;;2.28;;
23015;SDS011;11674;52.428;13.584;2023-01-31T07:12:13;12.95;;;2.00;;
23015;SDS011;11674;52.428;13.584;2023-01-31T07:17:20;19.08;;;2.70;;
23015;SDS011;11674;52.428;13.584;2023-01-31T07:22:27;13.95;;;2.25;;
23015;SDS011;11674;52.428;13.584;2023-01-31T07:27:34;14.45;;;2.42;;
23015;SDS011;11674;52.428;13.584;2023-01-31T07:32:41;8.27;;;2.50;;
23015;SDS011;11674;52.428;13.584;2023-01-31T07:37:50;12.93;;;2.78;;
23015;SDS011;11674;52.428;13.584;2023-01-31T07:42:58;10.43;;;2.17;;
23015;SDS011;11674;52.428;13.584;2023-01-31T07:48:04;12.85;;;2.33;;
23015;SDS011;11674;52.428;13.584;2023-01-31T07:53:11;6.72;;;1.83;;
23015;SDS011;11674;52.428;13.584;2023-01-31T07:58:18;14.63;;;2.53;;
23015;SDS011;11674;52.428;13.584;2023-01-31T08:03:26;13.27;;;2.38;;
23015;SDS011;11674;52.428;13.584;2023-01-31T08:08:35;15.73;;;2.65;;
23015;SDS011;11674;52.428;13.584;2023-01-31T08:13:43;12.95;;;2.78;;
23015;SDS011;11674;52.428;13.584;2023-01-31T08:18:50;18.35;;;3.45;;
23015;SDS011;11674;52.428;13.584;2023-01-31T08:23:58;10.90;;;2.58;;
23015;SDS011;11674;52.428;13.584;2023-01-31T08:29:05;12.52;;;2.50;;
23015;SDS011;11674;52.428;13.584;2023-01-31T08:34:12;19.45;;;2.40;;
23015;SDS011;11674;52.428;13.584;2023-01-31T08:39:19;13.23;;;2.22;;
23015;SDS011;11674;52.428;13.584;2023-01-31T08:44:26;11.52;;;2.13;;
23015;SDS011;11674;52.428;13.584;2023-01-31T08:49:33;9.45;;;2.67;;
23015;SDS011;11674;52.428;13.584;2023-01-31T08:54:40;14.43;;;3.08;;
23015;SDS011;11674;52.428;13.584;2023-01-31T08:59:47;15.20;;;2.22;;
23015;SDS011;11674;52.428;13.584;2023-01-31T09:04:54;9.30;;;1.92;;
23015;SDS011;11674;52.428;13.584;2023-01-31T09:10:01;15.20;;;2.47;;
23015;SDS011;11674;52.428;13.584;2023-01-31T09:15:08;14.23;;;2.50;;
23015;SDS011;11674;52.428;13.584;2023-01-31T09:20:15;11.70;;;2.38;;
23015;SDS011;11674;52.428;13.584;2023-01-31T09:25:22;6.60;;;2.33;;
23015;SDS011;11674;52.428;13.584;2023-01-31T09:30:29;9.10;;;2.78;;
23015;SDS011;11674;52.428;13.584;2023-01-31T09:35:36;13.13;;;2.63;;
23015;SDS011;11674;52.428;13.584;2023-01-31T09:40:43;9.88;;;2.47;;
23015;SDS011;11674;52.428;13.584;2023-01-31T09:45:50;12.52;;;2.72;;
23015;SDS011;11674;52.428;13.584;2023-01-31T09:50:59;15.35;;;2.40;;
23015;SDS011;11674;52.428;13.584;2023-01-31T10:11:55;20.80;;;4.28;;
23015;SDS011;11674;52.428;13.584;2023-01-31T10:17:07;14.98;;;4.18;;
23015;SDS011;11674;52.428;13.584;2023-01-31T10:28:05;13.63;;;2.33;;
23015;SDS011;11674;52.428;13.584;2023-01-31T10:39:05;9.95;;;2.10;;
23015;SDS011;11674;52.428;13.584;2023-01-31T10:44:26;14.25;;;2.35;;
23015;SDS011;11674;52.428;13.584;2023-01-31T10:49:49;15.23;;;2.50;;
23015;SDS011;11674;52.428;13.584;2023-01-31T10:55:02;11.05;;;2.08;;
23015;SDS011;11674;52.428;13.584;2023-01-31T11:00:12;10.50;;;2.10;;
23015;SDS011;11674;52.428;13.584;2023-01-31T11:05:26;15.98;;;2.42;;
23015;SDS011;11674;52.428;13.584;2023-01-31T11:10:34;14.40;;;2.75;;
23015;SDS011;11674;52.428;13.584;2023-01-31T11:15:56;10.77;;;2.15;;
23015;SDS011;11674;52.428;13.584;2023-01-31T11:21:03;14.18;;;2.67;;
23015;SDS011;11674;52.428;13.584;2023-01-31T11:26:11;10.43;;;2.17;;
23015;SDS011;11674;52.428;13.584;2023-01-31T11:31:19;12.23;;;2.63;;
23015;SDS011;11674;52.428;13.584;2023-01-31T11:36:41;16.23;;;2.75;;
23015;SDS011;11674;52.428;13.584;2023-01-31T11:41:49;12.40;;;3.40;;
23015;SDS011;11674;52.428;13.584;2023-01-31T11:46:57;10.68;;;3.10;;
23015;SDS011;11674;52.428;13.584;2023-01-31T11:52:13;19.15;;;3.30;;
23015;SDS011;11674;52.428;13.584;2023-01-31T11:57:31;17.85;;;3.58;;
23015;SDS011;11674;52.428;13.584;2023-01-31T12:02:40;18.60;;;2.85;;
23015;SDS011;11674;52.428;13.584;2023-01-31T12:07:48;14.98;;;2.63;;
23015;SDS011;11674;52.428;13.584;2023-01-31T12:13:00;10.18;;;2.58;;
23015;SDS011;11674;52.428;13.584;2023-01-31T12:40:31;13.68;;;2.88;;
23015;SDS011;11674;52.428;13.584;2023-01-31T12:51:34;16.13;;;3.85;;
23015;SDS011;11674;52.428;13.584;2023-01-31T12:57:14;8.50;;;3.05;;
23015;SDS011;11674;52.428;13.584;2023-01-31T13:02:36;21.42;;;3.90;;
23015;SDS011;11674;52.428;13.584;2023-01-31T13:13:15;13.82;;;3.97;;
23015;SDS011;11674;52.428;13.584;2023-01-31T13:18:28;22.13;;;3.65;;
23015;SDS011;11674;52.428;13.584;2023-01-31T13:23:40;18.88;;;4.35;;
23015;SDS011;11674;52.428;13.584;2023-01-31T13:28:54;15.48;;;4.28;;
23015;SDS011;11674;52.428;13.584;2023-01-31T13:34:09;22.77;;;3.90;;
23015;SDS011;11674;52.428;13.584;2023-01-31T13:39:22;11.57;;;4.07;;
23015;SDS011;11674;52.428;13.584;2023-01-31T13:44:33;7.70;;;3.47;;
23015;SDS011;11674;52.428;13.584;2023-01-31T13:55:27;9.20;;;3.10;;
23015;SDS011;11674;52.428;13.584;2023-01-31T14:00:39;13.27;;;4.25;;
23015;SDS011;11674;52.428;13.584;2023-01-31T14:11:29;11.50;;;3.90;;
23015;SDS011;11674;52.428;13.584;2023-01-31T14:16:34;11.27;;;3.90;;
23015;SDS011;11674;52.428;13.584;2023-01-31T14:22:04;12.75;;;4.35;;
23015;SDS011;11674;52.428;13.584;2023-01-31T14:27:24;12.70;;;3.80;;
23015;SDS011;11674;52.428;13.584;2023-01-31T15:00:04;8.50;;;3.70;;
23015;SDS011;11674;52.428;13.584;2023-01-31T15:16:02;9.27;;;3.85;;
23015;SDS011;11674;52.428;13.584;2023-01-31T15:21:13;7.90;;;4.00;;
23015;SDS011;11674;52.428;13.584;2023-01-31T15:26:30;7.45;;;3.58;;
23015;SDS011;11674;52.428;13.584;2023-01-31T15:31:40;9.13;;;3.75;;
23015;SDS011;11674;52.428;13.584;2023-01-31T15:36:56;6.82;;;3.50;;
23015;SDS011;11674;52.428;13.584;2023-01-31T15:42:20;12.65;;;4.57;;
23015;SDS011;11674;52.428;13.584;2023-01-31T15:47:31;6.82;;;4.03;;
23015;SDS011;11674;52.428;13.584;2023-01-31T15:52:38;11.52;;;4.65;;
23015;SDS011;11674;52.428;13.584;2023-01-31T15:57:55;8.05;;;4.32;;
23015;SDS011;11674;52.428;13.584;2023-01-31T16:03:05;8.05;;;4.30;;
23015;SDS011;11674;52.428;13.584;2023-01-31T16:13:40;5.80;;;4.03;;
23015;SDS011;11674;52.428;13.584;2023-01-31T16:18:49;7.15;;;3.85;;
23015;SDS011;11674;52.428;13.584;2023-01-31T16:29:15;7.43;;;4.95;;
23015;SDS011;11674;52.428;13.584;2023-01-31T16:34:25;6.60;;;4.82;;
23015;SDS011;11674;52.428;13.584;2023-01-31T16:39:40;5.82;;;4.47;;
23015;SDS011;11674;52.428;13.584;2023-01-31T16:44:49;8.95;;;5.28;;
23015;SDS011;11674;52.428;13.584;2023-01-31T16:55:22;9.70;;;5.85;;
23015;SDS011;11674;52.428;13.584;2023-01-31T17:05:38;11.45;;;5.65;;
23015;SDS011;11674;52.428;13.584;2023-01-31T17:10:46;6.28;;;5.45;;
23015;SDS011;11674;52.428;13.584;2023-01-31T17:15:54;13.25;;;6.10;;
23015;SDS011;11674;52.428;13.584;2023-01-31T17:21:01;10.10;;;6.57;;
23015;SDS011;11674;52.428;13.584;2023-01-31T17:26:13;8.52;;;6.25;;
23015;SDS011;11674;52.428;13.584;2023-01-31T17:31:22;9.13;;;6.40;;
23015;SDS011;11674;52.428;13.584;2023-01-31T17:36:29;14.40;;;7.13;;
23015;SDS011;11674;52.428;13.584;2023-01-31T17:41:36;9.43;;;5.85;;
23015;SDS011;11674;52.428;13.584;2023-01-31T17:46:44;11.77;;;7.13;;
23015;SDS011;11674;52.428;13.584;2023-01-31T17:51:51;9.35;;;6.82;;
23015;SDS011;11674;52.428;13.584;2023-01-31T17:56:58;11.00;;;7.32;;
23015;SDS011;11674;52.428;13.584;2023-01-31T18:02:05;10.85;;;6.68;;
23015;SDS011;11674;52.428;13.584;2023-01-31T18:07:15;10.93;;;7.18;;
23015;SDS011;11674;52.428;13.584;2023-01-31T18:12:22;9.30;;;6.88;;
23015;SDS011;11674;52.428;13.584;2023-01-31T18:17:29;11.50;;;7.18;;
23015;SDS011;11674;52.428;13.584;2023-01-31T18:22:36;12.88;;;7.53;;
23015;SDS011;11674;52.428;13.584;2023-01-31T18:27:43;12.48;;;6.38;;
23015;SDS011;11674;52.428;13.584;2023-01-31T18:32:50;12.88;;;6.93;;
23015;SDS011;11674;52.428;13.584;2023-01-31T18:37:57;10.63;;;6.15;;
23015;SDS011;11674;52.428;13.584;2023-01-31T18:43:04;12.95;;;6.45;;
23015;SDS011;11674;52.428;13.584;2023-01-31T18:48:11;7.95;;;5.57;;
23015;SDS011;11674;52.428;13.584;2023-01-31T18:53:18;14.07;;;5.72;;
23015;SDS011;11674;52.428;13.584;2023-01-31T18:58:28;7.80;;;5.30;;
23015;SDS011;11674;52.428;13.584;2023-01-31T19:03:36;7.93;;;5.25;;
23015;SDS011;11674;52.428;13.584;2023-01-31T19:08:48;7.55;;;5.28;;
23015;SDS011;11674;52.428;13.584;2023-01-31T19:13:57;7.53;;;5.18;;
23015;SDS011;11674;52.428;13.584;2023-01-31T19:19:03;12.65;;;5.60;;
23015;SDS011;11674;52.428;13.584;2023-01-31T19:24:11;7.45;;;4.85;;
23015;SDS011;11674;52.428;13.584;2023-01-31T19:29:19;10.77;;;4.55;;
23015;SDS011;11674;52.428;13.584;2023-01-31T19:34:26;12.70;;;5.05;;
23015;SDS011;11674;52.428;13.584;2023-01-31T19:39:33;12.10;;;6.40;;
23015;SDS011;11674;52.428;13.584;2023-01-31T19:44:40;2.75;;;1.00;;
23015;SDS011;11674;52.428;13.584;2023-01-31T19:49:47;4.47;;;1.02;;
23015;SDS011;11674;52.428;13.584;2023-01-31T19:54:55;6.32;;;1.33;;
23015;SDS011;11674;52.428;13.584;2023-01-31T20:00:02;3.22;;;1.52;;
23015;SDS011;11674;52.428;13.584;2023-01-31T20:05:10;5.35;;;1.30;;
23015;SDS011;11674;52.428;13.584;2023-01-31T20:10:17;4.10;;;1.38;;
23015;SDS011;11674;52.428;13.584;2023-01-31T20:15:24;6.20;;;1.88;;
23015;SDS011;11674;52.428;13.584;2023-01-31T20:20:35;13.52;;;1.70;;
23015;SDS011;11674;52.428;13.584;2023-01-31T20:25:41;9.88;;;1.92;;
23015;SDS011;11674;52.428;13.584;2023-01-31T20:30:51;7.25;;;1.73;;
23015;SDS011;11674;52.428;13.584;2023-01-31T20:35:59;7.05;;;1.60;;
23015;SDS011;11674;52.428;13.584;2023-01-31T20:41:08;6.15;;;2.20;;
23015;SDS011;11674;52.428;13.584;2023-01-31T20:46:15;9.65;;;1.65;;
23015;SDS011;11674;52.428;13.584;2023-01-31T20:51:22;11.35;;;1.88;;
23015;SDS011;11674;52.428;13.584;2023-01-31T20:56:29;12.00;;;1.90;;
23015;SDS011;11674;52.428;13.584;2023-01-31T21:01:37;14.02;;;2.25;;
23015;SDS011;11674;52.428;13.584;2023-01-31T21:06:44;9.88;;;2.05;;
23015;SDS011;11674;52.428;13.584;2023-01-31T21:11:51;15.15;;;2.50;;
23015;SDS011;11674;52.428;13.584;2023-01-31T21:16:59;12.63;;;2.53;;
23015;SDS011;11674;52.428;13.584;2023-01-31T21:22:05;9.68;;;1.90;;
23015;SDS011;11674;52.428;13.584;2023-01-31T21:27:19;9.57;;;2.25;;
23015;SDS011;11674;52.428;13.584;2023-01-31T21:32:27;13.05;;;1.85;;
23015;SDS011;11674;52.428;13.584;2023-01-31T21:37:36;9.95;;;1.92;;
23015;SDS011;11674;52.428;13.584;2023-01-31T21:42:47;12.60;;;2.20;;
23015;SDS011;11674;52.428;13.584;2023-01-31T21:47:54;11.10;;;2.28;;
23015;SDS011;11674;52.428;13.584;2023-01-31T21:53:01;16.95;;;3.17;;
23015;SDS011;11674;52.428;13.584;2023-01-31T21:58:08;8.38;;;1.55;;
23015;SDS011;11674;52.428;13.584;2023-01-31T22:03:15;5.25;;;1.60;;
23015;SDS011;11674;52.428;13.584;2023-01-31T22:08:22;6.28;;;1.33;;
23015;SDS011;11674;52.428;13.584;2023-01-31T22:13:30;12.23;;;1.70;;
23015;SDS011;11674;52.428;13.584;2023-01-31T22:18:38;6.32;;;1.00;;
23015;SDS011;11674;52.428;13.584;2023-01-31T22:23:46;3.53;;;1.00;;
23015;SDS011;11674;52.428;13.584;2023-01-31T22:28:56;6.38;;;1.13;;
23015;SDS011;11674;52.428;13.584;2023-01-31T22:34:05;8.10;;;1.42;;
23015;SDS011;11674;52.428;13.584;2023-01-31T22:39:12;7.82;;;1.27;;
23015;SDS011;11674;52.428;13.584;2023-01-31T22:44:19;10.77;;;1.80;;
23015;SDS011;11674;52.428;13.584;2023-01-31T22:49:26;6.25;;;2.10;;
23015;SDS011;11674;52.428;13.584;2023-01-31T22:54:33;14.88;;;3.00;;
23015;SDS011;11674;52.428;13.584;2023-01-31T22:59:40;21.90;;;2.92;;
23015;SDS011;11674;52.428;13.584;2023-01-31T23:04:47;13.90;;;2.58;;
23015;SDS011;11674;52.428;13.584;2023-01-31T23:09:54;17.65;;;3.88;;
23015;SDS011;11674;52.428;13.584;2023-01-31T23:15:02;12.55;;;2.60;;
23015;SDS011;11674;52.428;13.584;2023-01-31T23:25:17;16.35;;;2.50;;
23015;SDS011;11674;52.428;13.584;2023-01-31T23:30:24;18.67;;;3.22;;
23015;SDS011;11674;52.428;13.584;2023-01-31T23:35:31;18.90;;;3.35;;
23015;SDS011;11674;52.428;13.584;2023-01-31T23:40:37;13.57;;;2.95;;
23015;SDS011;11674;52.428;13.584;2023-01-31T23:45:45;23.27;;;3.15;;
23015;SDS011;11674;52.428;13.584;2023-01-31T23:50:51;14.60;;;3.35;;
23015;SDS011;11674;52.428;13.584;2023-01-31T23:55:59;15.52;;;2.92;;
